createdAt,value
2023-03-07T00:00:16.375Z,2.47
2023-03-07T00:02:43.236Z,4.20
2023-03-07T00:05:09.960Z,4.47
2023-03-07T00:07:37.088Z,3.47
2023-03-07T00:10:04.077Z,3.80
2023-03-07T00:12:30.948Z,3.58
2023-03-07T00:14:57.600Z,2.97
2023-03-07T00:17:24.385Z,3.00
2023-03-07T00:19:51.117Z,5.68
2023-03-07T00:22:17.845Z,4.82
2023-03-07T00:24:44.571Z,3.17
2023-03-07T00:27:11.235Z,2.97
2023-03-07T00:29:37.963Z,3.92
2023-03-07T00:32:05.049Z,4.68
2023-03-07T00:34:31.864Z,4.82
2023-03-07T00:36:58.522Z,5.82
2023-03-07T00:39:25.225Z,4.00
2023-03-07T00:41:51.893Z,3.95
2023-03-07T00:44:18.634Z,5.93
2023-03-07T00:46:45.586Z,7.47
2023-03-07T00:49:12.500Z,4.93
2023-03-07T00:51:39.189Z,5.90
2023-03-07T00:54:05.988Z,6.20
2023-03-07T00:56:32.929Z,6.40
2023-03-07T00:58:59.766Z,5.82
2023-03-07T01:01:26.479Z,6.97
2023-03-07T01:03:53.846Z,6.97
2023-03-07T01:06:23.917Z,6.68
2023-03-07T01:08:51.088Z,6.20
2023-03-07T01:11:18.557Z,5.80
2023-03-07T01:13:45.510Z,7.50
2023-03-07T01:16:21.821Z,7.55
2023-03-07T01:18:51.633Z,7.22
2023-03-07T01:21:19.761Z,8.25
2023-03-07T01:23:47.551Z,6.47
2023-03-07T01:26:16.351Z,8.93
2023-03-07T01:28:43.836Z,6.93
2023-03-07T01:31:11.460Z,8.77
2023-03-07T01:33:38.633Z,10.82
2023-03-07T01:36:20.075Z,8.52
2023-03-07T01:38:48.239Z,7.40
2023-03-07T01:41:15.590Z,10.95
2023-03-07T01:43:42.566Z,8.82
2023-03-07T01:46:18.495Z,10.40
2023-03-07T01:48:57.929Z,9.23
2023-03-07T01:51:25.686Z,11.10
2023-03-07T01:53:55.652Z,11.20
2023-03-07T01:56:22.884Z,9.57
2023-03-07T01:58:51.676Z,12.07
2023-03-07T02:01:19.106Z,11.70
2023-03-07T02:03:55.051Z,8.93
2023-03-07T02:06:22.750Z,13.48
2023-03-07T02:08:51.125Z,10.15
2023-03-07T02:11:18.129Z,12.55
2023-03-07T02:13:44.982Z,13.60
2023-03-07T02:16:12.663Z,14.70
2023-03-07T02:18:44.978Z,14.18
2023-03-07T02:21:23.728Z,12.70
2023-03-07T02:24:00.191Z,14.80
2023-03-07T02:26:47.465Z,14.80
2023-03-07T02:29:14.727Z,16.10
2023-03-07T02:31:41.528Z,13.25
2023-03-07T02:34:19.615Z,15.02
2023-03-07T02:36:47.445Z,16.08
2023-03-07T02:39:14.568Z,13.95
2023-03-07T02:41:41.424Z,13.07
2023-03-07T02:44:08.226Z,14.15
2023-03-07T02:46:35.201Z,13.10
2023-03-07T02:49:02.032Z,15.85
2023-03-07T02:51:30.868Z,15.57
2023-03-07T02:53:57.586Z,18.42
2023-03-07T02:56:24.387Z,16.52
2023-03-07T02:58:51.068Z,17.58
2023-03-07T03:01:18.007Z,16.98
2023-03-07T03:03:44.917Z,18.80
2023-03-07T03:06:11.622Z,20.27
2023-03-07T03:08:38.219Z,20.27
2023-03-07T03:11:05.062Z,19.88
2023-03-07T03:13:31.699Z,23.90
2023-03-07T03:15:59.802Z,17.85
2023-03-07T03:18:30.858Z,25.20
2023-03-07T03:20:57.635Z,17.83
2023-03-07T03:23:27.309Z,22.30
2023-03-07T03:26:02.636Z,21.27
2023-03-07T03:28:29.311Z,25.00
2023-03-07T03:31:00.346Z,20.80
2023-03-07T03:33:29.210Z,23.67
2023-03-07T03:36:00.391Z,20.75
2023-03-07T03:38:27.251Z,22.63
2023-03-07T03:40:53.958Z,21.35
2023-03-07T03:43:20.732Z,22.00
2023-03-07T03:45:57.770Z,22.73
2023-03-07T03:48:24.533Z,25.23
2023-03-07T03:50:51.151Z,25.27
2023-03-07T03:53:17.882Z,23.88
2023-03-07T03:55:44.721Z,22.92
2023-03-07T03:58:11.455Z,28.38
2023-03-07T04:00:38.145Z,24.77
2023-03-07T04:03:04.919Z,24.75
2023-03-07T04:05:34.509Z,23.20
2023-03-07T04:08:01.270Z,27.55
2023-03-07T04:10:27.891Z,24.88
2023-03-07T04:12:54.614Z,23.25
2023-03-07T04:15:21.277Z,24.08
2023-03-07T04:17:48.001Z,25.98
2023-03-07T04:20:17.542Z,26.42
2023-03-07T04:22:44.918Z,24.42
2023-03-07T04:25:11.615Z,26.45
2023-03-07T04:27:38.253Z,26.92
2023-03-07T04:30:05.652Z,22.92
2023-03-07T04:32:32.929Z,27.88
2023-03-07T04:34:59.606Z,26.02
2023-03-07T04:37:26.330Z,23.48
2023-03-07T04:39:52.933Z,22.90
2023-03-07T04:42:19.678Z,30.20
2023-03-07T04:44:46.427Z,23.77
2023-03-07T04:47:13.179Z,26.67
2023-03-07T04:49:39.892Z,23.33
2023-03-07T04:52:06.785Z,22.00
2023-03-07T04:54:33.505Z,22.33
2023-03-07T04:57:00.230Z,24.23
2023-03-07T04:59:26.881Z,26.05
2023-03-07T05:01:53.556Z,22.02
2023-03-07T05:04:20.343Z,17.48
2023-03-07T05:06:47.155Z,21.00
2023-03-07T05:09:13.877Z,19.08
2023-03-07T05:11:40.529Z,19.20
2023-03-07T05:14:07.250Z,19.83
2023-03-07T05:16:33.963Z,20.98
2023-03-07T05:19:01.042Z,23.80
2023-03-07T05:21:28.612Z,21.55
2023-03-07T05:23:55.312Z,22.50
2023-03-07T05:26:21.977Z,20.85
2023-03-07T05:28:49.417Z,21.60
2023-03-07T05:31:18.397Z,20.77
2023-03-07T05:33:45.269Z,22.30
2023-03-07T05:36:11.937Z,21.45
2023-03-07T05:38:38.879Z,22.80
2023-03-07T05:41:05.539Z,20.88
2023-03-07T05:43:32.262Z,21.63
2023-03-07T05:45:59.108Z,20.10
2023-03-07T05:48:25.906Z,21.63
2023-03-07T05:50:52.623Z,21.52
2023-03-07T05:53:19.360Z,20.42
2023-03-07T05:55:46.111Z,22.98
2023-03-07T05:58:12.845Z,21.55
2023-03-07T06:00:40.301Z,21.13
2023-03-07T06:03:07.172Z,20.40
2023-03-07T06:05:33.845Z,20.42
2023-03-07T06:08:00.604Z,18.48
2023-03-07T06:10:27.633Z,20.27
2023-03-07T06:12:54.793Z,21.55
2023-03-07T06:15:24.357Z,20.15
2023-03-07T06:17:52.998Z,17.92
2023-03-07T06:20:23.127Z,17.88
2023-03-07T06:22:49.920Z,20.05
2023-03-07T06:25:21.547Z,19.85
2023-03-07T06:27:48.485Z,21.02
2023-03-07T06:30:15.346Z,19.38
2023-03-07T06:32:42.171Z,19.73
2023-03-07T06:35:09.516Z,16.45
2023-03-07T06:37:36.265Z,18.13
2023-03-07T06:40:06.368Z,23.75
2023-03-07T06:42:33.121Z,17.35
2023-03-07T06:44:59.968Z,19.38
2023-03-07T06:47:26.782Z,18.30
2023-03-07T06:49:53.762Z,19.55
2023-03-07T06:52:20.531Z,15.48
2023-03-07T06:54:47.324Z,16.45
2023-03-07T06:57:14.472Z,15.43
2023-03-07T06:59:41.293Z,17.42
2023-03-07T07:02:13.323Z,14.05
2023-03-07T07:07:07.481Z,15.35
2023-03-07T07:09:34.567Z,19.15
2023-03-07T07:12:01.445Z,15.63
2023-03-07T07:14:28.132Z,12.93
2023-03-07T07:16:55.035Z,18.80
2023-03-07T07:19:22.048Z,14.38
2023-03-07T07:21:48.928Z,17.50
2023-03-07T07:24:15.730Z,16.65
2023-03-07T07:26:42.444Z,18.90
2023-03-07T07:29:09.604Z,13.43
2023-03-07T07:31:36.916Z,14.63
2023-03-07T07:34:04.108Z,15.35
2023-03-07T07:36:32.062Z,10.45
2023-03-07T07:38:59.242Z,11.38
2023-03-07T07:41:26.367Z,12.27
2023-03-07T07:43:54.314Z,13.35
2023-03-07T07:46:21.097Z,9.95
2023-03-07T07:48:48.330Z,11.07
2023-03-07T07:51:15.526Z,11.90
2023-03-07T07:53:42.424Z,10.52
2023-03-07T07:56:09.372Z,9.52
2023-03-07T07:58:36.257Z,9.13
2023-03-07T08:01:22.315Z,7.43
2023-03-07T08:03:49.676Z,7.20
2023-03-07T08:06:21.455Z,6.97
2023-03-07T08:08:48.816Z,5.30
2023-03-07T08:11:17.105Z,6.47
2023-03-07T08:13:44.405Z,9.02
2023-03-07T08:16:13.309Z,4.88
2023-03-07T08:18:40.902Z,8.45
2023-03-07T08:21:08.928Z,5.55
2023-03-07T08:23:36.900Z,5.97
2023-03-07T08:26:06.349Z,4.75
2023-03-07T08:28:33.225Z,3.53
2023-03-07T08:31:07.267Z,4.10
2023-03-07T08:33:33.992Z,4.55
2023-03-07T08:36:00.840Z,6.97
2023-03-07T08:38:28.034Z,2.47
2023-03-07T08:40:54.898Z,3.63
2023-03-07T08:43:21.670Z,3.25
2023-03-07T08:45:50.866Z,3.67
2023-03-07T08:48:17.733Z,6.75
2023-03-07T08:50:44.422Z,5.20
2023-03-07T08:53:11.148Z,5.20
2023-03-07T08:55:37.782Z,5.43
2023-03-07T08:58:04.543Z,3.13
2023-03-07T09:00:31.460Z,4.60
2023-03-07T09:03:01.700Z,2.70
2023-03-07T09:05:29.474Z,3.90
2023-03-07T09:07:56.505Z,7.72
2023-03-07T09:10:23.396Z,8.02
2023-03-07T09:12:53.739Z,6.60
2023-03-07T09:15:20.753Z,5.70
2023-03-07T09:17:47.686Z,5.55
2023-03-07T09:20:18.164Z,4.90
2023-03-07T09:22:46.730Z,3.25
2023-03-07T09:25:14.152Z,5.13
2023-03-07T09:27:41.113Z,5.28
2023-03-07T09:30:08.627Z,3.47
2023-03-07T09:32:36.046Z,6.28
2023-03-07T09:35:03.233Z,2.50
2023-03-07T09:37:30.034Z,7.72
2023-03-07T09:39:57.127Z,4.43
2023-03-07T09:42:51.297Z,4.50
2023-03-07T09:45:21.102Z,6.55
2023-03-07T09:47:50.802Z,5.13
2023-03-07T09:50:35.465Z,5.38
2023-03-07T09:55:32.534Z,4.45
2023-03-07T09:58:06.749Z,5.07
2023-03-07T10:00:41.752Z,5.93
2023-03-07T10:03:35.441Z,5.28
2023-03-07T10:06:12.788Z,4.25
2023-03-07T10:08:39.602Z,4.65
2023-03-07T10:11:09.366Z,6.35
2023-03-07T10:13:55.273Z,4.38
2023-03-07T10:16:31.402Z,4.32
2023-03-07T10:19:17.927Z,5.13
2023-03-07T10:21:53.790Z,6.05
2023-03-07T10:24:59.699Z,6.82
2023-03-07T10:27:30.225Z,7.03
2023-03-07T10:30:00.172Z,6.28
2023-03-07T10:32:41.103Z,8.25
2023-03-07T10:35:11.100Z,5.63
2023-03-07T10:37:53.472Z,3.28
2023-03-07T10:40:44.857Z,8.20
2023-03-07T10:43:38.236Z,5.57
2023-03-07T10:46:25.956Z,5.60
2023-03-07T10:49:10.190Z,5.90
2023-03-07T10:51:43.305Z,5.53
2023-03-07T10:54:20.939Z,7.32
2023-03-07T10:57:10.845Z,7.10
2023-03-07T10:59:40.084Z,4.03
2023-03-07T11:02:28.766Z,6.63
2023-03-07T11:04:55.838Z,4.47
2023-03-07T11:07:32.100Z,3.90
2023-03-07T11:10:00.171Z,2.60
2023-03-07T11:12:29.555Z,5.88
2023-03-07T11:15:19.414Z,2.25
2023-03-07T11:17:48.419Z,7.07
2023-03-07T11:20:25.883Z,3.83
2023-03-07T11:23:18.191Z,4.53
2023-03-07T11:25:45.050Z,3.92
2023-03-07T11:28:33.598Z,4.30
2023-03-07T11:31:23.210Z,4.82
2023-03-07T11:34:03.878Z,4.22
2023-03-07T11:36:36.442Z,5.35
2023-03-07T11:39:15.338Z,2.78
2023-03-07T11:42:15.843Z,3.92
2023-03-07T11:44:42.476Z,2.63
2023-03-07T11:47:09.135Z,6.32
2023-03-07T11:49:51.044Z,4.50
2023-03-07T11:52:26.908Z,5.32
2023-03-07T11:55:02.316Z,3.22
2023-03-07T11:58:00.396Z,4.75
2023-03-07T12:00:42.890Z,3.78
2023-03-07T12:03:28.429Z,4.18
2023-03-07T12:06:19.543Z,5.03
2023-03-07T12:09:01.351Z,2.88
2023-03-07T12:11:38.605Z,2.17
2023-03-07T12:14:21.073Z,7.53
2023-03-07T12:17:00.058Z,4.97
2023-03-07T12:19:51.218Z,4.68
2023-03-07T12:22:31.850Z,4.15
2023-03-07T12:25:24.848Z,5.70
2023-03-07T12:28:26.097Z,6.93
2023-03-07T12:31:24.511Z,3.03
2023-03-07T12:34:07.365Z,3.25
2023-03-07T12:36:47.590Z,3.28
2023-03-07T12:39:40.511Z,5.10
2023-03-07T12:42:36.526Z,7.57
2023-03-07T12:45:12.274Z,3.40
2023-03-07T12:47:39.952Z,3.13
2023-03-07T12:50:31.217Z,4.65
2023-03-07T12:53:04.063Z,4.28
2023-03-07T12:55:55.914Z,4.85
2023-03-07T12:58:46.961Z,4.90
2023-03-07T13:01:38.539Z,6.15
2023-03-07T13:04:13.333Z,5.82
2023-03-07T13:06:42.065Z,6.05
2023-03-07T13:09:18.784Z,4.68
2023-03-07T13:12:16.546Z,3.28
2023-03-07T13:14:49.080Z,5.93
2023-03-07T13:17:31.057Z,6.00
2023-03-07T13:20:00.194Z,5.53
2023-03-07T13:22:26.836Z,5.05
2023-03-07T13:24:55.372Z,5.15
2023-03-07T13:27:45.414Z,3.22
2023-03-07T13:30:12.354Z,2.90
2023-03-07T13:32:48.647Z,7.07
2023-03-07T13:35:24.613Z,3.95
2023-03-07T13:37:54.960Z,3.92
2023-03-07T13:40:26.458Z,3.15
2023-03-07T13:42:53.378Z,4.05
2023-03-07T13:45:38.531Z,4.75
2023-03-07T13:48:12.268Z,3.75
2023-03-07T13:50:42.085Z,4.82
2023-03-07T13:53:18.712Z,3.78
2023-03-07T13:55:50.894Z,6.55
2023-03-07T13:58:28.878Z,4.57
2023-03-07T14:04:15.170Z,4.50
2023-03-07T14:06:49.560Z,5.00
2023-03-07T14:09:21.004Z,4.80
2023-03-07T14:12:10.673Z,4.10
2023-03-07T14:14:43.861Z,4.65
2023-03-07T14:17:29.173Z,3.78
2023-03-07T14:20:11.229Z,4.25
2023-03-07T14:22:54.486Z,1.58
2023-03-07T14:25:21.198Z,4.18
2023-03-07T14:28:21.907Z,4.15
2023-03-07T14:30:58.997Z,3.15
2023-03-07T14:33:36.478Z,4.72
2023-03-07T14:36:14.575Z,4.78
2023-03-07T14:38:44.385Z,3.00
2023-03-07T14:41:41.890Z,4.13
2023-03-07T14:44:56.818Z,4.18
2023-03-07T14:47:23.656Z,3.88
2023-03-07T14:49:58.596Z,8.02
2023-03-07T14:52:31.173Z,7.97
2023-03-07T14:55:01.849Z,3.90
2023-03-07T14:57:54.664Z,5.00
2023-03-07T15:00:24.661Z,3.30
2023-03-07T15:02:51.515Z,4.65
2023-03-07T15:05:21.953Z,4.13
2023-03-07T15:07:49.379Z,3.97
2023-03-07T15:10:40.685Z,4.80
2023-03-07T15:13:17.251Z,4.78
2023-03-07T15:15:48.504Z,1.13
2023-03-07T15:18:21.336Z,2.67
2023-03-07T15:20:50.195Z,2.67
2023-03-07T15:23:24.077Z,3.83
2023-03-07T15:26:05.053Z,3.63
2023-03-07T15:28:36.928Z,5.00
2023-03-07T15:33:32.650Z,8.50
2023-03-07T15:36:11.844Z,4.07
2023-03-07T15:38:47.447Z,1.77
2023-03-07T15:41:36.059Z,2.65
2023-03-07T15:44:17.360Z,5.28
2023-03-07T15:46:47.652Z,3.85
2023-03-07T15:49:18.982Z,2.97
2023-03-07T15:51:45.749Z,2.88
2023-03-07T15:54:35.105Z,3.55
2023-03-07T15:57:06.839Z,3.50
2023-03-07T15:59:37.078Z,2.78
2023-03-07T16:02:32.108Z,1.63
2023-03-07T16:05:27.136Z,1.90
2023-03-07T16:07:56.073Z,3.28
2023-03-07T16:10:30.615Z,4.45
2023-03-07T16:12:59.886Z,1.67
2023-03-07T16:15:26.819Z,4.00
2023-03-07T16:17:56.466Z,3.10
2023-03-07T16:20:27.086Z,2.85
2023-03-07T16:22:54.796Z,2.10
2023-03-07T16:25:23.782Z,0.98
2023-03-07T16:27:54.857Z,2.00
2023-03-07T16:30:24.802Z,3.38
2023-03-07T16:32:52.018Z,3.28
2023-03-07T16:35:26.660Z,1.63
2023-03-07T16:37:54.743Z,6.57
2023-03-07T16:40:23.080Z,3.92
2023-03-07T16:42:50.742Z,1.48
2023-03-07T16:45:27.761Z,3.75
2023-03-07T16:47:57.375Z,2.65
2023-03-07T16:50:27.424Z,3.90
2023-03-07T16:52:54.285Z,3.30
2023-03-07T16:55:21.705Z,4.13
2023-03-07T16:57:59.654Z,3.25
2023-03-07T17:00:27.521Z,2.00
2023-03-07T17:02:57.111Z,5.03
2023-03-07T17:05:26.960Z,2.78
2023-03-07T17:07:55.422Z,3.60
2023-03-07T17:10:24.435Z,1.77
2023-03-07T17:12:51.211Z,2.33
2023-03-07T17:15:21.818Z,1.65
2023-03-07T17:17:48.965Z,5.82
2023-03-07T17:20:20.192Z,1.15
2023-03-07T17:22:47.153Z,2.95
2023-03-07T17:25:14.196Z,1.47
2023-03-07T17:27:45.603Z,2.90
2023-03-07T17:30:22.179Z,4.13
2023-03-07T17:32:49.145Z,2.28
2023-03-07T17:35:16.604Z,4.00
2023-03-07T17:37:45.371Z,1.15
2023-03-07T17:40:13.185Z,2.33
2023-03-07T17:42:41.796Z,4.18
2023-03-07T17:45:10.743Z,2.67
2023-03-07T17:47:37.533Z,4.07
2023-03-07T17:50:05.735Z,6.63
2023-03-07T17:52:33.459Z,3.65
2023-03-07T17:55:00.478Z,3.42
2023-03-07T17:57:28.132Z,2.10
2023-03-07T17:59:55.275Z,5.32
2023-03-07T18:02:22.151Z,2.72
2023-03-07T18:04:49.148Z,1.23
2023-03-07T18:07:18.315Z,3.22
2023-03-07T18:09:45.262Z,3.25
2023-03-07T18:12:12.335Z,2.45
2023-03-07T18:14:39.127Z,1.90
2023-03-07T18:17:05.898Z,2.67
2023-03-07T18:19:32.670Z,3.35
2023-03-07T18:21:59.505Z,3.20
2023-03-07T18:24:29.844Z,4.90
2023-03-07T18:26:59.332Z,2.70
2023-03-07T18:29:28.004Z,4.82
2023-03-07T18:31:55.299Z,5.53
2023-03-07T18:34:24.707Z,5.05
2023-03-07T18:36:53.040Z,3.80
2023-03-07T18:39:24.145Z,2.97
2023-03-07T18:41:51.068Z,2.13
2023-03-07T18:44:18.766Z,2.22
2023-03-07T18:46:46.218Z,1.85
2023-03-07T18:49:13.416Z,3.30
2023-03-07T18:51:40.210Z,4.63
2023-03-07T18:54:09.040Z,1.15
2023-03-07T18:56:35.876Z,2.25
2023-03-07T18:59:02.848Z,4.30
2023-03-07T19:01:32.144Z,3.33
2023-03-07T19:04:02.833Z,0.98
2023-03-07T19:06:39.588Z,4.63
2023-03-07T19:09:07.794Z,3.00
2023-03-07T19:11:35.983Z,3.65
2023-03-07T19:14:03.260Z,2.30
2023-03-07T19:16:30.054Z,3.58
2023-03-07T19:18:57.118Z,1.90
2023-03-07T19:21:29.025Z,4.47
2023-03-07T19:23:58.271Z,1.42
2023-03-07T19:26:25.955Z,1.02
2023-03-07T19:28:54.994Z,3.08
2023-03-07T19:31:29.755Z,3.15
2023-03-07T19:33:57.502Z,2.50
2023-03-07T19:36:27.568Z,3.35
2023-03-07T19:38:56.345Z,3.05
2023-03-07T19:41:25.783Z,4.18
2023-03-07T19:43:55.884Z,3.20
2023-03-07T19:46:23.062Z,2.47
2023-03-07T19:48:49.970Z,4.35
2023-03-07T19:51:19.354Z,2.28
2023-03-07T19:53:47.049Z,4.68
2023-03-07T19:56:21.919Z,1.42
2023-03-07T19:58:49.550Z,1.65
2023-03-07T20:01:18.886Z,4.03
2023-03-07T20:03:46.963Z,1.05
2023-03-07T20:06:19.649Z,1.98
2023-03-07T20:08:51.590Z,3.05
2023-03-07T20:11:26.832Z,1.55
2023-03-07T20:13:56.269Z,3.38
2023-03-07T20:16:24.246Z,4.47
2023-03-07T20:18:53.134Z,3.55
2023-03-07T20:21:22.090Z,2.35
2023-03-07T20:23:48.993Z,1.52
2023-03-07T20:26:22.894Z,5.35
2023-03-07T20:28:51.766Z,5.68
2023-03-07T20:31:20.078Z,2.15
2023-03-07T20:33:47.161Z,3.10
2023-03-07T20:36:24.516Z,1.38
2023-03-07T20:38:57.032Z,5.03
2023-03-07T20:41:26.115Z,3.20
2023-03-07T20:43:53.897Z,4.97
2023-03-07T20:46:22.313Z,3.20
2023-03-07T20:48:52.021Z,3.45
2023-03-07T20:51:20.937Z,1.75
2023-03-07T20:53:52.109Z,5.60
2023-03-07T20:56:19.816Z,2.20
2023-03-07T20:58:47.241Z,1.83
2023-03-07T21:01:17.323Z,3.25
2023-03-07T21:03:44.267Z,3.15
2023-03-07T21:06:11.768Z,4.97
2023-03-07T21:08:38.619Z,4.68
2023-03-07T21:11:07.953Z,1.05
2023-03-07T21:13:37.149Z,3.00
2023-03-07T21:16:12.774Z,2.42
2023-03-07T21:18:39.647Z,2.00
2023-03-07T21:21:16.031Z,6.95
2023-03-07T21:23:43.039Z,1.02
2023-03-07T21:26:16.106Z,2.58
2023-03-07T21:28:43.038Z,4.07
2023-03-07T21:31:12.842Z,4.25
2023-03-07T21:33:41.829Z,5.15
2023-03-07T21:36:09.873Z,3.42
2023-03-07T21:38:38.735Z,2.15
2023-03-07T21:41:06.666Z,3.58
2023-03-07T21:43:33.664Z,2.58
2023-03-07T21:46:09.680Z,4.47
2023-03-07T21:48:36.889Z,0.65
2023-03-07T21:51:04.443Z,3.28
2023-03-07T21:53:32.138Z,3.38
2023-03-07T21:56:01.980Z,7.97
2023-03-07T21:58:30.302Z,6.15
2023-03-07T22:00:57.918Z,1.60
2023-03-07T22:03:26.466Z,2.47
2023-03-07T22:05:54.874Z,1.63
2023-03-07T22:08:22.985Z,3.42
2023-03-07T22:10:57.020Z,3.80
2023-03-07T22:13:23.797Z,3.40
2023-03-07T22:15:50.675Z,1.98
2023-03-07T22:18:18.233Z,5.45
2023-03-07T22:20:45.372Z,3.88
2023-03-07T22:23:12.220Z,3.70
2023-03-07T22:25:38.925Z,2.22
2023-03-07T22:28:05.729Z,4.32
2023-03-07T22:30:32.523Z,1.65
2023-03-07T22:33:00.368Z,1.50
2023-03-07T22:35:27.096Z,2.63
2023-03-07T22:37:54.767Z,2.78
2023-03-07T22:40:21.566Z,1.38
2023-03-07T22:42:48.371Z,2.83
2023-03-07T22:45:15.158Z,3.38
2023-03-07T22:47:41.941Z,1.83
2023-03-07T22:50:09.087Z,2.83
2023-03-07T22:52:35.841Z,3.28
2023-03-07T22:55:02.567Z,3.50
2023-03-07T22:57:30.918Z,0.93
2023-03-07T22:59:57.788Z,2.97
2023-03-07T23:02:24.631Z,2.78
2023-03-07T23:04:52.479Z,2.15
2023-03-07T23:07:19.494Z,2.60
2023-03-07T23:09:46.187Z,5.35
2023-03-07T23:12:12.970Z,0.93
2023-03-07T23:14:39.795Z,2.90
2023-03-07T23:17:06.622Z,5.95
2023-03-07T23:19:33.927Z,1.10
2023-03-07T23:22:00.883Z,6.15
2023-03-07T23:24:27.534Z,1.88
2023-03-07T23:26:54.425Z,2.70
2023-03-07T23:29:21.108Z,2.40
2023-03-07T23:31:47.880Z,2.20
2023-03-07T23:34:19.809Z,6.57
2023-03-07T23:36:46.764Z,4.40
2023-03-07T23:39:15.290Z,6.85
2023-03-07T23:41:42.106Z,8.00
2023-03-07T23:44:10.169Z,4.22
2023-03-07T23:46:36.954Z,5.07
2023-03-07T23:49:03.818Z,6.20
2023-03-07T23:51:30.507Z,5.57
2023-03-07T23:53:57.295Z,4.72
2023-03-07T23:56:23.996Z,5.38
2023-03-07T23:58:51.756Z,3.33
